createdAt,value
2018-05-09T00:00:46.729Z,3.37
2018-05-09T00:03:13.262Z,3.53
2018-05-09T00:05:39.737Z,3.40
2018-05-09T00:08:06.220Z,3.20
2018-05-09T00:10:32.585Z,3.80
2018-05-09T00:12:59.113Z,3.47
2018-05-09T00:15:25.487Z,3.10
2018-05-09T00:17:52.011Z,3.60
2018-05-09T00:20:19.116Z,3.57
2018-05-09T00:22:45.602Z,4.27
2018-05-09T00:25:12.707Z,3.40
2018-05-09T00:27:39.077Z,3.43
2018-05-09T00:30:06.270Z,3.73
2018-05-09T00:32:32.641Z,3.23
2018-05-09T00:34:58.986Z,3.70
2018-05-09T00:37:26.073Z,4.07
2018-05-09T00:39:52.377Z,3.23
2018-05-09T00:42:18.673Z,3.70
2018-05-09T00:44:44.997Z,3.40
2018-05-09T00:47:11.383Z,4.60
2018-05-09T00:49:37.710Z,4.23
2018-05-09T00:52:04.090Z,3.10
2018-05-09T00:54:32.342Z,2.97
2018-05-09T00:56:58.809Z,3.33
2018-05-09T00:59:25.870Z,3.40
2018-05-09T01:01:53.102Z,3.37
2018-05-09T01:04:19.520Z,3.70
2018-05-09T01:06:45.847Z,4.10
2018-05-09T01:09:12.197Z,3.50
2018-05-09T01:11:39.506Z,3.10
2018-05-09T01:14:06.012Z,4.20
2018-05-09T01:16:32.355Z,3.67
2018-05-09T01:18:58.687Z,3.47
2018-05-09T01:21:25.087Z,3.70
2018-05-09T01:23:52.182Z,3.97
2018-05-09T01:26:18.738Z,3.80
2018-05-09T01:28:45.057Z,3.53
2018-05-09T01:31:11.428Z,3.70
2018-05-09T01:33:37.798Z,3.40
2018-05-09T01:36:04.214Z,4.23
2018-05-09T01:38:30.620Z,3.83
2018-05-09T01:40:57.046Z,3.83
2018-05-09T01:43:24.083Z,3.60
2018-05-09T01:45:50.415Z,2.97
2018-05-09T01:48:17.480Z,3.37
2018-05-09T01:50:43.841Z,3.30
2018-05-09T01:53:10.363Z,3.07
2018-05-09T01:55:36.666Z,4.00
2018-05-09T01:58:03.132Z,4.10
2018-05-09T02:00:29.995Z,3.40
2018-05-09T02:02:56.370Z,3.93
2018-05-09T02:05:22.733Z,3.33
2018-05-09T02:07:49.084Z,3.67
2018-05-09T02:10:15.453Z,3.87
2018-05-09T02:12:42.550Z,4.40
2018-05-09T02:15:08.929Z,4.23
2018-05-09T02:17:35.312Z,3.70
2018-05-09T02:20:01.694Z,3.93
2018-05-09T02:22:28.788Z,3.20
2018-05-09T02:24:55.121Z,3.77
2018-05-09T02:27:21.444Z,3.70
2018-05-09T02:29:47.781Z,4.23
2018-05-09T02:32:14.088Z,4.43
2018-05-09T02:34:40.436Z,4.93
2018-05-09T02:37:06.777Z,4.27
2018-05-09T02:39:33.655Z,3.83
2018-05-09T02:41:59.905Z,4.20
2018-05-09T02:44:26.259Z,3.50
2018-05-09T02:46:52.568Z,3.83
2018-05-09T02:49:18.897Z,3.27
2018-05-09T02:51:45.301Z,4.40
2018-05-09T02:54:11.694Z,4.60
2018-05-09T02:56:38.051Z,4.10
2018-05-09T02:59:04.389Z,4.10
2018-05-09T03:01:30.765Z,4.37
2018-05-09T03:03:57.131Z,3.90
2018-05-09T03:06:23.493Z,4.00
2018-05-09T03:08:50.647Z,4.62
2018-05-09T03:11:17.737Z,3.70
2018-05-09T03:13:44.075Z,3.87
2018-05-09T03:16:10.457Z,3.73
2018-05-09T03:18:37.566Z,4.10
2018-05-09T03:21:03.906Z,5.00
2018-05-09T03:23:30.218Z,3.60
2018-05-09T03:25:56.555Z,3.60
2018-05-09T03:28:22.914Z,4.07
2018-05-09T03:30:50.056Z,4.15
2018-05-09T03:33:17.104Z,4.75
2018-05-09T03:35:44.226Z,3.95
2018-05-09T03:38:10.537Z,3.90
2018-05-09T03:40:37.375Z,3.53
2018-05-09T03:43:03.765Z,4.40
2018-05-09T03:45:30.110Z,4.40
2018-05-09T03:47:56.423Z,4.00
2018-05-09T03:50:23.493Z,3.80
2018-05-09T03:52:49.828Z,3.85
2018-05-09T03:55:16.370Z,3.92
2018-05-09T03:57:42.734Z,4.30
2018-05-09T04:00:09.081Z,3.80
2018-05-09T04:02:53.786Z,4.00
2018-05-09T04:05:38.562Z,4.00
2018-05-09T04:08:23.309Z,4.85
2018-05-09T04:10:49.689Z,4.18
2018-05-09T04:13:16.975Z,4.53
2018-05-09T04:15:43.317Z,3.62
2018-05-09T04:18:09.605Z,4.25
2018-05-09T04:20:36.789Z,4.40
2018-05-09T04:23:03.098Z,4.40
2018-05-09T04:25:30.213Z,4.60
2018-05-09T04:27:56.561Z,3.85
2018-05-09T04:30:22.906Z,4.60
2018-05-09T04:32:50.029Z,4.20
2018-05-09T04:35:16.519Z,4.40
2018-05-09T04:37:42.965Z,4.50
2018-05-09T04:40:09.283Z,3.83
2018-05-09T04:42:35.625Z,3.85
2018-05-09T04:45:01.916Z,5.00
2018-05-09T04:47:28.308Z,4.75
2018-05-09T04:49:54.823Z,4.50
2018-05-09T04:52:22.051Z,4.60
2018-05-09T04:54:48.450Z,4.35
2018-05-09T04:57:14.982Z,4.72
2018-05-09T04:59:42.138Z,4.20
2018-05-09T05:02:08.678Z,4.62
2018-05-09T05:04:36.093Z,4.80
2018-05-09T05:07:02.591Z,4.45
2018-05-09T05:09:28.893Z,4.95
2018-05-09T05:11:55.227Z,4.15
2018-05-09T05:14:22.353Z,5.43
2018-05-09T05:16:48.718Z,4.80
2018-05-09T05:19:15.121Z,5.28
2018-05-09T05:21:41.484Z,5.72
2018-05-09T05:24:07.878Z,4.95
2018-05-09T05:26:34.934Z,5.50
2018-05-09T05:29:02.063Z,5.10
2018-05-09T05:31:28.422Z,5.03
2018-05-09T05:33:54.771Z,5.72
2018-05-09T05:36:21.142Z,4.95
2018-05-09T05:38:48.097Z,4.90
2018-05-09T05:41:14.463Z,5.45
2018-05-09T05:43:40.798Z,4.70
2018-05-09T05:46:07.230Z,4.50
2018-05-09T05:48:33.693Z,4.77
2018-05-09T05:51:00.084Z,5.50
2018-05-09T05:53:27.195Z,5.57
2018-05-09T05:55:53.584Z,5.30
2018-05-09T05:58:19.946Z,5.40
2018-05-09T06:00:46.308Z,4.90
2018-05-09T06:03:13.416Z,4.73
2018-05-09T06:05:39.774Z,5.37
2018-05-09T06:08:06.107Z,4.37
2018-05-09T06:10:32.740Z,4.97
2018-05-09T06:12:59.169Z,4.67
2018-05-09T06:15:25.518Z,4.60
2018-05-09T06:17:52.654Z,4.63
2018-05-09T06:20:19.086Z,4.57
2018-05-09T06:22:45.475Z,5.20
2018-05-09T06:25:11.796Z,5.10
2018-05-09T06:27:38.126Z,4.60
2018-05-09T06:30:04.547Z,4.60
2018-05-09T06:32:30.941Z,3.63
2018-05-09T06:34:57.243Z,4.57
2018-05-09T06:37:23.907Z,3.70
2018-05-09T06:39:50.210Z,4.00
2018-05-09T06:42:16.570Z,4.10
2018-05-09T06:44:42.905Z,4.60
2018-05-09T06:47:10.043Z,3.57
2018-05-09T06:49:36.451Z,4.03
2018-05-09T06:52:02.816Z,3.50
2018-05-09T06:54:29.899Z,3.60
2018-05-09T06:56:56.233Z,4.40
2018-05-09T06:59:22.565Z,3.83
2018-05-09T07:01:48.906Z,4.07
2018-05-09T07:04:15.241Z,4.73
2018-05-09T07:06:42.137Z,5.20
2018-05-09T07:09:09.005Z,5.03
2018-05-09T07:11:35.396Z,5.03
2018-05-09T07:14:01.864Z,5.93
2018-05-09T07:16:28.274Z,6.23
2018-05-09T07:18:54.632Z,6.87
2018-05-09T07:21:20.964Z,5.53
2018-05-09T07:23:47.378Z,6.10
2018-05-09T07:26:13.827Z,5.90
2018-05-09T07:28:40.217Z,7.27
2018-05-09T07:31:06.590Z,5.57
2018-05-09T07:33:32.919Z,7.20
2018-05-09T07:35:59.329Z,5.90
2018-05-09T07:38:25.767Z,6.23
2018-05-09T07:40:52.087Z,4.87
2018-05-09T07:43:18.506Z,4.70
2018-05-09T07:45:44.878Z,5.10
2018-05-09T07:48:11.250Z,4.23
2018-05-09T07:50:37.698Z,4.27
2018-05-09T07:53:04.777Z,5.03
2018-05-09T07:55:31.119Z,5.57
2018-05-09T07:57:57.470Z,4.57
2018-05-09T08:00:23.882Z,4.20
2018-05-09T08:02:50.251Z,4.77
2018-05-09T08:05:16.636Z,4.87
2018-05-09T08:07:43.061Z,4.23
2018-05-09T08:10:09.394Z,4.00
2018-05-09T08:12:35.869Z,4.33
2018-05-09T08:15:02.889Z,4.50
2018-05-09T08:17:29.267Z,4.90
2018-05-09T08:19:56.413Z,4.30
2018-05-09T08:22:22.895Z,4.20
2018-05-09T08:24:49.241Z,3.53
2018-05-09T08:27:15.606Z,3.57
2018-05-09T08:29:42.666Z,4.23
2018-05-09T08:32:09.003Z,4.00
2018-05-09T08:34:35.373Z,4.70
2018-05-09T08:37:01.683Z,4.20
2018-05-09T08:39:28.029Z,3.73
2018-05-09T08:41:54.398Z,4.20
2018-05-09T08:44:21.566Z,5.13
2018-05-09T08:46:47.987Z,3.87
2018-05-09T08:49:18.824Z,4.57
2018-05-09T08:51:45.079Z,3.90
2018-05-09T08:54:11.380Z,3.93
2018-05-09T08:56:38.672Z,4.30
2018-05-09T08:59:05.501Z,5.00
2018-05-09T09:01:31.860Z,4.90
2018-05-09T09:03:58.202Z,5.00
2018-05-09T09:06:24.634Z,4.20
2018-05-09T09:08:53.440Z,4.90
2018-05-09T09:11:19.779Z,4.90
2018-05-09T09:13:46.116Z,4.90
2018-05-09T09:16:13.300Z,5.00
2018-05-09T09:18:39.946Z,4.67
2018-05-09T09:21:06.407Z,4.90
2018-05-09T09:23:32.851Z,6.37
2018-05-09T09:26:00.053Z,4.97
2018-05-09T09:28:26.396Z,5.17
2018-05-09T09:30:52.732Z,4.60
2018-05-09T09:33:19.078Z,5.37
2018-05-09T09:35:45.463Z,4.13
2018-05-09T09:38:11.860Z,5.50
2018-05-09T09:40:38.934Z,4.77
2018-05-09T09:43:05.250Z,5.50
2018-05-09T09:45:32.333Z,5.63
2018-05-09T09:47:58.683Z,5.27
2018-05-09T09:50:25.094Z,5.73
2018-05-09T09:52:51.437Z,4.87
2018-05-09T09:55:17.774Z,5.23
2018-05-09T09:57:44.104Z,5.50
2018-05-09T10:00:10.866Z,5.37
2018-05-09T10:02:37.134Z,5.20
2018-05-09T10:05:03.508Z,4.77
2018-05-09T10:07:29.901Z,6.10
2018-05-09T10:09:56.233Z,6.10
2018-05-09T10:12:22.652Z,6.27
2018-05-09T10:14:49.032Z,5.60
2018-05-09T10:17:15.383Z,5.60
2018-05-09T10:19:42.538Z,6.43
2018-05-09T10:22:08.906Z,5.80
2018-05-09T10:24:35.282Z,5.73
2018-05-09T10:27:01.622Z,6.47
2018-05-09T10:29:28.046Z,5.60
2018-05-09T10:31:54.443Z,6.00
2018-05-09T10:34:20.785Z,5.60
2018-05-09T10:36:47.071Z,5.33
2018-05-09T10:39:14.134Z,5.60
2018-05-09T10:41:40.461Z,5.70
2018-05-09T10:44:06.786Z,5.70
2018-05-09T10:46:33.089Z,5.70
2018-05-09T10:49:00.160Z,5.37
2018-05-09T10:51:26.497Z,5.47
2018-05-09T10:53:52.865Z,5.30
2018-05-09T10:56:19.233Z,5.67
2018-05-09T10:58:45.593Z,5.27
2018-05-09T11:01:11.915Z,5.60
2018-05-09T11:03:38.433Z,5.70
2018-05-09T11:06:04.748Z,6.27
2018-05-09T11:08:31.869Z,6.40
2018-05-09T11:10:58.224Z,5.80
2018-05-09T11:13:25.364Z,5.27
2018-05-09T11:15:51.934Z,5.97
2018-05-09T11:18:18.279Z,5.97
2018-05-09T11:20:44.820Z,5.40
2018-05-09T11:23:11.120Z,4.90
2018-05-09T11:25:37.406Z,6.60
2018-05-09T11:28:03.852Z,6.03
2018-05-09T11:30:30.237Z,5.60
2018-05-09T11:32:56.734Z,5.60
2018-05-09T11:35:23.065Z,5.90
2018-05-09T11:37:49.419Z,5.37
2018-05-09T11:40:15.816Z,5.37
2018-05-09T11:42:42.218Z,5.93
2018-05-09T11:45:08.733Z,5.70
2018-05-09T11:47:35.097Z,5.60
2018-05-09T11:50:01.504Z,5.67
2018-05-09T11:52:27.925Z,5.80
2018-05-09T11:54:55.032Z,5.53
2018-05-09T11:57:21.649Z,5.60
2018-05-09T11:59:48.353Z,5.63
2018-05-09T12:02:15.437Z,5.53
2018-05-09T12:04:41.965Z,6.23
2018-05-09T12:07:08.812Z,5.33
2018-05-09T12:09:35.420Z,5.60
2018-05-09T12:12:01.817Z,6.00
2018-05-09T12:14:28.305Z,5.60
2018-05-09T12:16:55.508Z,5.67
2018-05-09T12:19:22.346Z,4.60
2018-05-09T12:21:48.743Z,4.70
2018-05-09T12:24:15.845Z,4.60
2018-05-09T12:26:42.521Z,4.70
2018-05-09T12:29:10.175Z,5.03
2018-05-09T12:31:37.398Z,4.60
2018-05-09T12:34:03.999Z,4.33
2018-05-09T12:36:30.527Z,4.90
2018-05-09T12:38:56.837Z,5.17
2018-05-09T12:41:24.401Z,4.33
2018-05-09T12:43:51.292Z,4.37
2018-05-09T12:46:17.702Z,5.10
2018-05-09T12:48:44.198Z,4.90
2018-05-09T12:51:10.519Z,6.13
2018-05-09T12:53:37.849Z,5.90
2018-05-09T12:56:04.321Z,4.60
2018-05-09T12:58:31.406Z,4.10
2018-05-09T13:00:57.751Z,3.47
2018-05-09T13:03:24.338Z,3.90
2018-05-09T13:05:51.485Z,3.90
2018-05-09T13:08:18.764Z,4.30
2018-05-09T13:10:45.348Z,4.10
2018-05-09T13:13:12.034Z,4.80
2018-05-09T13:15:39.598Z,4.00
2018-05-09T13:18:06.100Z,5.13
2018-05-09T13:20:32.517Z,4.70
2018-05-09T13:22:59.762Z,4.70
2018-05-09T13:25:26.407Z,3.80
2018-05-09T13:27:52.979Z,3.93
2018-05-09T13:30:19.617Z,3.90
2018-05-09T13:32:46.152Z,3.20
2018-05-09T13:35:12.658Z,3.40
2018-05-09T13:37:45.327Z,3.73
2018-05-09T13:40:11.812Z,3.60
2018-05-09T13:42:38.226Z,3.70
2018-05-09T13:45:04.564Z,3.47
2018-05-09T13:47:31.491Z,3.50
2018-05-09T13:49:57.844Z,4.00
2018-05-09T13:52:24.261Z,2.97
2018-05-09T13:54:50.696Z,2.70
2018-05-09T13:57:17.201Z,3.00
2018-05-09T13:59:51.392Z,2.90
2018-05-09T14:02:17.857Z,3.50
2018-05-09T14:04:44.227Z,2.90
2018-05-09T14:07:10.634Z,2.50
2018-05-09T14:09:37.034Z,2.80
2018-05-09T14:12:03.559Z,3.07
2018-05-09T14:14:30.114Z,2.70
2018-05-09T14:16:56.676Z,3.20
2018-05-09T14:19:23.043Z,2.93
2018-05-09T14:21:49.402Z,3.43
2018-05-09T14:24:15.781Z,3.27
2018-05-09T14:26:42.126Z,2.60
2018-05-09T14:29:08.543Z,3.90
2018-05-09T14:31:35.051Z,3.10
2018-05-09T14:34:01.467Z,3.60
2018-05-09T14:36:27.887Z,3.27
2018-05-09T14:38:55.088Z,3.30
2018-05-09T14:41:21.612Z,3.40
2018-05-09T14:43:48.178Z,3.90
2018-05-09T14:46:14.564Z,4.10
2018-05-09T14:48:40.966Z,3.83
2018-05-09T14:51:08.117Z,3.37
2018-05-09T14:53:34.836Z,3.60
2018-05-09T14:56:01.308Z,3.30
2018-05-09T14:58:27.764Z,3.60
2018-05-09T15:00:54.120Z,3.67
2018-05-09T15:03:20.443Z,3.80
2018-05-09T15:05:46.817Z,4.43
2018-05-09T15:08:13.975Z,3.33
2018-05-09T15:10:40.324Z,3.50
2018-05-09T15:13:06.676Z,3.60
2018-05-09T15:15:33.148Z,3.47
2018-05-09T15:18:00.361Z,3.00
2018-05-09T15:20:26.742Z,3.27
2018-05-09T15:22:53.127Z,3.50
2018-05-09T15:25:19.584Z,3.30
2018-05-09T15:27:46.710Z,4.17
2018-05-09T15:30:13.135Z,3.47
2018-05-09T15:32:39.639Z,3.43
2018-05-09T15:35:05.942Z,3.10
2018-05-09T15:37:33.120Z,3.53
2018-05-09T15:39:59.630Z,3.60
2018-05-09T15:42:26.398Z,3.60
2018-05-09T15:44:52.756Z,3.57
2018-05-09T15:47:19.874Z,3.90
2018-05-09T15:49:46.249Z,3.60
2018-05-09T15:52:12.619Z,3.90
2018-05-09T15:54:39.231Z,4.00
2018-05-09T15:57:05.819Z,3.60
2018-05-09T15:59:32.191Z,3.27
2018-05-09T16:01:59.395Z,3.70
2018-05-09T16:04:25.944Z,3.80
2018-05-09T16:06:52.291Z,3.20
2018-05-09T16:09:18.750Z,3.80
2018-05-09T16:11:46.050Z,3.90
2018-05-09T16:14:12.429Z,3.93
2018-05-09T16:16:39.527Z,3.33
2018-05-09T16:19:05.892Z,4.03
2018-05-09T16:21:32.319Z,3.40
2018-05-09T16:23:58.736Z,3.80
2018-05-09T16:26:25.110Z,4.07
2018-05-09T16:28:51.541Z,3.63
2018-05-09T16:31:18.667Z,4.30
2018-05-09T16:33:44.999Z,3.37
2018-05-09T16:36:11.424Z,4.40
2018-05-09T16:38:37.765Z,4.30
2018-05-09T16:41:04.286Z,4.00
2018-05-09T16:43:31.779Z,3.50
2018-05-09T16:45:58.496Z,3.60
2018-05-09T16:48:25.586Z,3.20
2018-05-09T16:50:52.074Z,4.40
2018-05-09T16:53:18.548Z,3.70
2018-05-09T16:55:45.396Z,3.50
2018-05-09T16:58:11.790Z,3.73
2018-05-09T17:00:38.977Z,4.40
2018-05-09T17:03:05.318Z,4.07
2018-05-09T17:05:31.810Z,3.87
2018-05-09T17:07:58.271Z,3.77
2018-05-09T17:10:24.634Z,4.23
2018-05-09T17:12:51.121Z,3.70
2018-05-09T17:15:17.627Z,4.30
2018-05-09T17:17:44.002Z,4.23
2018-05-09T17:20:10.370Z,3.30
2018-05-09T17:22:36.814Z,3.47
2018-05-09T17:25:03.277Z,3.80
2018-05-09T17:27:29.768Z,3.60
2018-05-09T17:29:56.124Z,3.93
2018-05-09T17:32:23.267Z,3.70
2018-05-09T17:34:50.059Z,3.80
2018-05-09T17:37:16.476Z,3.73
2018-05-09T17:39:42.878Z,3.77
2018-05-09T17:42:10.107Z,4.00
2018-05-09T17:44:36.517Z,3.13
2018-05-09T17:47:02.849Z,3.80
2018-05-09T17:49:29.287Z,3.27
2018-05-09T17:51:55.853Z,3.73
2018-05-09T17:54:22.961Z,4.00
2018-05-09T17:56:49.443Z,4.20
2018-05-09T17:59:16.006Z,3.60
2018-05-09T18:01:42.487Z,3.43
2018-05-09T18:04:09.110Z,3.20
2018-05-09T18:06:35.555Z,4.07
2018-05-09T18:09:01.990Z,4.10
2018-05-09T18:11:28.485Z,3.90
2018-05-09T18:13:54.824Z,3.57
2018-05-09T18:16:21.192Z,4.37
2018-05-09T18:18:47.971Z,3.80
2018-05-09T18:21:14.404Z,4.10
2018-05-09T18:23:40.793Z,4.33
2018-05-09T18:26:07.449Z,4.60
2018-05-09T18:28:34.050Z,4.63
2018-05-09T18:31:00.395Z,4.60
2018-05-09T18:33:27.701Z,3.70
2018-05-09T18:35:54.687Z,4.00
2018-05-09T18:38:21.192Z,3.77
2018-05-09T18:40:48.540Z,4.40
2018-05-09T18:43:14.905Z,3.47
2018-05-09T18:45:41.398Z,3.90
2018-05-09T18:48:07.830Z,3.87
2018-05-09T18:50:34.491Z,3.50
2018-05-09T18:53:01.352Z,4.50
2018-05-09T18:55:28.226Z,4.70
2018-05-09T18:57:56.131Z,3.90
2018-05-09T19:00:22.545Z,3.97
2018-05-09T19:02:49.063Z,3.67
2018-05-09T19:05:15.580Z,4.67
2018-05-09T19:07:42.262Z,3.57
2018-05-09T19:10:08.927Z,4.80
2018-05-09T19:12:36.588Z,4.70
2018-05-09T19:15:04.304Z,5.20
2018-05-09T19:17:30.840Z,4.27
2018-05-09T19:19:58.185Z,4.13
2018-05-09T19:22:24.771Z,4.07
2018-05-09T19:24:51.470Z,3.50
2018-05-09T19:27:17.812Z,4.67
2018-05-09T19:29:44.180Z,4.17
2018-05-09T19:32:10.592Z,4.30
2018-05-09T19:34:37.007Z,3.47
2018-05-09T19:37:03.590Z,3.80
2018-05-09T19:39:30.505Z,4.80
2018-05-09T19:41:57.994Z,4.20
2018-05-09T19:44:25.514Z,4.60
2018-05-09T19:46:52.125Z,5.13
2018-05-09T19:49:19.082Z,3.90
2018-05-09T19:51:45.661Z,4.27
2018-05-09T19:54:12.261Z,3.73
2018-05-09T19:56:39.172Z,4.20
2018-05-09T19:59:05.976Z,4.67
2018-05-09T20:01:32.939Z,3.93
2018-05-09T20:04:04.238Z,3.83
2018-05-09T20:06:31.057Z,4.60
2018-05-09T20:08:57.768Z,4.30
2018-05-09T20:11:25.213Z,4.20
2018-05-09T20:13:52.056Z,4.30
2018-05-09T20:16:19.679Z,3.90
2018-05-09T20:18:46.911Z,3.97
2018-05-09T20:21:13.799Z,4.00
2018-05-09T20:23:41.028Z,4.40
2018-05-09T20:26:32.014Z,3.67
2018-05-09T20:29:01.775Z,3.93
2018-05-09T20:31:53.030Z,3.73
2018-05-09T20:34:20.061Z,3.83
2018-05-09T20:36:47.954Z,4.13
2018-05-09T20:39:15.194Z,4.40
2018-05-09T20:41:42.907Z,5.60
2018-05-09T20:44:10.226Z,5.50
2018-05-09T20:46:37.079Z,4.43
2018-05-09T20:49:03.798Z,5.17
2018-05-09T20:51:49.268Z,4.97
2018-05-09T20:54:16.923Z,5.83
2018-05-09T20:56:44.039Z,3.60
2018-05-09T20:59:11.262Z,4.40
2018-05-09T21:01:53.328Z,4.43
2018-05-09T21:04:19.828Z,3.97
2018-05-09T21:06:46.355Z,4.10
2018-05-09T21:09:17.249Z,4.53
2018-05-09T21:12:09.546Z,4.60
2018-05-09T21:14:44.378Z,4.70
2018-05-09T21:17:10.873Z,4.63
2018-05-09T21:19:37.422Z,4.10
2018-05-09T21:22:03.892Z,4.90
2018-05-09T21:24:30.721Z,3.80
2018-05-09T21:26:57.242Z,4.10
2018-05-09T21:29:23.964Z,3.70
2018-05-09T21:31:54.115Z,3.97
2018-05-09T21:34:21.603Z,4.23
2018-05-09T21:36:48.236Z,3.47
2018-05-09T21:39:20.491Z,4.30
2018-05-09T21:41:47.795Z,3.70
2018-05-09T21:44:15.088Z,3.90
2018-05-09T21:46:41.603Z,3.90
2018-05-09T21:49:08.351Z,3.77
2018-05-09T21:51:34.710Z,2.80
2018-05-09T21:54:01.175Z,3.63
2018-05-09T21:56:27.733Z,3.00
2018-05-09T21:58:54.302Z,3.10
2018-05-09T22:01:22.667Z,2.87
2018-05-09T22:03:49.934Z,3.20
2018-05-09T22:06:16.459Z,3.73
2018-05-09T22:08:43.034Z,2.77
2018-05-09T22:11:10.670Z,3.83
2018-05-09T22:13:37.406Z,3.00
2018-05-09T22:16:03.876Z,4.50
2018-05-09T22:18:30.437Z,3.83
2018-05-09T22:20:56.964Z,4.00
2018-05-09T22:23:23.588Z,3.40
2018-05-09T22:25:50.146Z,3.97
2018-05-09T22:28:17.392Z,4.10
2018-05-09T22:30:44.869Z,3.37
2018-05-09T22:33:11.275Z,3.00
2018-05-09T22:35:37.836Z,2.77
2018-05-09T22:38:04.255Z,2.53
2018-05-09T22:40:30.799Z,2.80
2018-05-09T22:42:57.436Z,3.23
2018-05-09T22:45:23.869Z,3.07
2018-05-09T22:47:50.385Z,3.40
2018-05-09T22:50:16.977Z,3.03
2018-05-09T22:52:43.552Z,3.77
2018-05-09T22:55:10.090Z,2.87
2018-05-09T22:57:36.491Z,2.53
2018-05-09T23:00:08.408Z,2.17
2018-05-09T23:02:34.921Z,2.40
2018-05-09T23:05:01.513Z,2.77
2018-05-09T23:07:28.809Z,3.00
2018-05-09T23:09:55.236Z,3.80
2018-05-09T23:12:21.682Z,4.33
2018-05-09T23:14:48.123Z,5.50
2018-05-09T23:17:15.424Z,5.97
2018-05-09T23:19:42.894Z,6.07
2018-05-09T23:22:09.838Z,6.90
2018-05-09T23:24:36.473Z,6.93
2018-05-09T23:27:03.046Z,6.30
2018-05-09T23:29:29.480Z,6.30
2018-05-09T23:31:56.080Z,5.63
2018-05-09T23:34:23.018Z,6.60
2018-05-09T23:36:54.155Z,6.03
2018-05-09T23:39:21.351Z,5.93
2018-05-09T23:41:52.122Z,6.07
2018-05-09T23:44:18.653Z,6.50
2018-05-09T23:46:45.401Z,5.20
2018-05-09T23:49:12.815Z,6.30
2018-05-09T23:51:39.309Z,5.67
2018-05-09T23:54:05.783Z,5.10
2018-05-09T23:56:36.612Z,5.03
2018-05-09T23:59:03.066Z,5.27
